Time;durP1;ratioP1;P1;durP2;ratioP2;P2;SDS_P1;SDS_P2;PMS_P1;PMS_P2;Temp;Humidity;BMP_temperature;BMP_pressure;BME280_temperature;BME280_humidity;BME280_pressure;Samples;Min_cycle;Max_cycle;Signal;HPM_P1;HPM_P2
2023/09/05 00:00:44;;;;;;;0.20;0.20;;;;;;;;;;6319528;28;20450;-86
2023/09/05 00:03:44;;;;;;;0.20;0.20;;;;;;;;;;6311121;28;20429;-86
2023/09/05 00:06:46;;;;;;;0.20;0.20;;;;;;;;;;6299921;28;20035;-86
2023/09/05 00:09:46;;;;;;;;;;;;;;;;;;6328501;28;20024;-86
2023/09/05 00:12:50;;;;;;;0.20;0.20;;;;;;;;;;6320597;28;19912;-86
2023/09/05 00:15:50;;;;;;;0.20;0.20;;;;;;;;;;6300798;28;20394;-86
2023/09/05 00:18:50;;;;;;;0.20;0.20;;;;;;;;;;6331948;28;20422;-86
2023/09/05 00:21:50;;;;;;;0.20;0.20;;;;;;;;;;6310227;28;20343;-86
2023/09/05 00:24:51;;;;;;;0.20;0.20;;;;;;;;;;6321199;28;20338;-86
2023/09/05 00:27:51;;;;;;;0.20;0.20;;;;;;;;;;6303812;28;20035;-84
2023/09/05 00:30:51;;;;;;;0.20;0.20;;;;;;;;;;6306837;28;20478;-84
2023/09/05 00:33:51;;;;;;;0.20;0.20;;;;;;;;;;6319832;28;20024;-84
2023/09/05 00:36:52;;;;;;;0.20;0.20;;;;;;;;;;6327958;28;20543;-84
2023/09/05 00:39:52;;;;;;;0.20;0.20;;;;;;;;;;6332895;28;20119;-84
2023/09/05 00:42:53;;;;;;;0.20;0.20;;;;;;;;;;6318906;28;20012;-84
2023/09/05 00:45:55;;;;;;;0.20;0.20;;;;;;;;;;6308134;28;20035;-84
2023/09/05 00:48:57;;;;;;;0.20;0.20;;;;;;;;;;6322981;28;20046;-86
2023/09/05 00:51:58;;;;;;;0.20;0.20;;;;;;;;;;6300187;28;20024;-86
2023/09/05 00:54:59;;;;;;;0.20;0.20;;;;;;;;;;6298478;28;20020;-86
2023/09/05 00:58:00;;;;;;;0.10;0.10;;;;;;;;;;6299954;28;20020;-86
2023/09/05 01:01:01;;;;;;;0.10;0.10;;;;;;;;;;6318759;28;20028;-86
2023/09/05 01:04:02;;;;;;;0.20;0.20;;;;;;;;;;6313913;28;20020;-86
2023/09/05 01:07:06;;;;;;;0.20;0.20;;;;;;;;;;6327603;28;20020;-86
2023/09/05 01:10:14;;;;;;;0.20;0.20;;;;;;;;;;6322222;28;20434;-86
2023/09/05 01:13:35;;;;;;;0.20;0.20;;;;;;;;;;6328959;28;20382;-85
2023/09/05 01:16:45;;;;;;;0.20;0.20;;;;;;;;;;6305694;28;20020;-85
2023/09/05 01:19:46;;;;;;;0.10;0.10;;;;;;;;;;6301344;28;20388;-85
2023/09/05 01:22:58;;;;;;;0.13;0.13;;;;;;;;;;6327919;28;20024;-86
2023/09/05 01:25:59;;;;;;;0.20;0.20;;;;;;;;;;6316879;28;20024;-85
2023/09/05 01:29:00;;;;;;;0.13;0.13;;;;;;;;;;6313105;28;20471;-86
2023/09/05 01:32:00;;;;;;;0.20;0.20;;;;;;;;;;6298303;28;20020;-85
2023/09/05 01:35:01;;;;;;;0.20;0.20;;;;;;;;;;6299754;28;20402;-85
2023/09/05 01:38:01;;;;;;;0.20;0.20;;;;;;;;;;6320091;28;20047;-83
2023/09/05 01:41:01;;;;;;;0.20;0.20;;;;;;;;;;6334280;28;20012;-84
2023/09/05 01:44:01;;;;;;;0.20;0.20;;;;;;;;;;6309708;28;20028;-84
2023/09/05 01:47:02;;;;;;;0.20;0.20;;;;;;;;;;6328750;28;20536;-84
2023/09/05 01:50:04;;;;;;;0.20;0.20;;;;;;;;;;6323734;28;20023;-84
2023/09/05 01:53:04;;;;;;;0.20;0.20;;;;;;;;;;6323994;28;20024;-84
2023/09/05 01:56:05;;;;;;;0.20;0.20;;;;;;;;;;6330310;28;20073;-84
2023/09/05 01:59:05;;;;;;;0.20;0.20;;;;;;;;;;6317763;28;20039;-84
2023/09/05 02:02:06;;;;;;;0.20;0.20;;;;;;;;;;6299560;28;20042;-83
2023/09/05 02:05:06;;;;;;;0.10;0.10;;;;;;;;;;6316667;28;20131;-84
2023/09/05 02:08:07;;;;;;;0.20;0.20;;;;;;;;;;6291143;28;20020;-84
2023/09/05 02:11:10;;;;;;;0.20;0.20;;;;;;;;;;6294558;28;20028;-84
2023/09/05 02:14:11;;;;;;;0.20;0.20;;;;;;;;;;6309575;28;20016;-84
2023/09/05 02:17:12;;;;;;;0.20;0.20;;;;;;;;;;6295473;28;20031;-84
2023/09/05 02:20:12;;;;;;;0.20;0.20;;;;;;;;;;6317158;28;20020;-84
2023/09/05 02:23:12;;;;;;;0.20;0.20;;;;;;;;;;6316704;28;20349;-84
2023/09/05 02:26:13;;;;;;;0.20;0.20;;;;;;;;;;6305834;28;20020;-84
2023/09/05 02:29:13;;;;;;;0.20;0.20;;;;;;;;;;6295954;28;20391;-84
2023/09/05 02:32:13;;;;;;;0.20;0.20;;;;;;;;;;6321002;28;20301;-84
2023/09/05 02:35:14;;;;;;;0.20;0.20;;;;;;;;;;6310940;28;20034;-84
2023/09/05 02:38:15;;;;;;;0.20;0.20;;;;;;;;;;6301977;28;20083;-84
2023/09/05 02:41:16;;;;;;;0.20;0.20;;;;;;;;;;6296664;28;20031;-84
2023/09/05 02:44:16;;;;;;;0.20;0.20;;;;;;;;;;6327592;28;20051;-84
2023/09/05 02:47:17;;;;;;;0.20;0.20;;;;;;;;;;6312138;28;20055;-84
2023/09/05 02:50:17;;;;;;;0.20;0.20;;;;;;;;;;6326139;28;20028;-84
2023/09/05 02:53:17;;;;;;;0.20;0.20;;;;;;;;;;6317462;28;20020;-84
2023/09/05 02:56:18;;;;;;;0.10;0.10;;;;;;;;;;6293245;28;20020;-84
2023/09/05 02:59:18;;;;;;;0.20;0.20;;;;;;;;;;6323081;28;20073;-84
2023/09/05 03:02:20;;;;;;;0.10;0.10;;;;;;;;;;6297083;28;20053;-84
2023/09/05 03:05:21;;;;;;;0.20;0.20;;;;;;;;;;6321702;28;20266;-84
2023/09/05 03:08:21;;;;;;;0.20;0.20;;;;;;;;;;6299946;28;20041;-84
2023/09/05 03:11:21;;;;;;;0.20;0.20;;;;;;;;;;6316730;28;20028;-83
2023/09/05 03:14:22;;;;;;;0.20;0.20;;;;;;;;;;6316374;28;20505;-84
2023/09/05 03:17:22;;;;;;;0.20;0.20;;;;;;;;;;6313261;28;20069;-85
2023/09/05 03:20:25;;;;;;;0.20;0.20;;;;;;;;;;6312396;28;20020;-85
2023/09/05 03:23:25;;;;;;;0.20;0.20;;;;;;;;;;6323800;28;20063;-85
2023/09/05 03:26:26;;;;;;;0.20;0.20;;;;;;;;;;6304165;28;20024;-86
2023/09/05 03:29:26;;;;;;;0.10;0.10;;;;;;;;;;6331801;28;20076;-85
2023/09/05 03:32:26;;;;;;;0.20;0.20;;;;;;;;;;6328664;28;20016;-85
2023/09/05 03:35:27;;;;;;;0.20;0.20;;;;;;;;;;6325994;28;20031;-85
2023/09/05 03:38:29;;;;;;;0.20;0.20;;;;;;;;;;6323902;28;20461;-85
2023/09/05 03:41:30;;;;;;;0.20;0.20;;;;;;;;;;6336774;28;20022;-85
2023/09/05 03:44:30;;;;;;;0.20;0.20;;;;;;;;;;6320744;28;20350;-85
2023/09/05 03:47:30;;;;;;;0.20;0.20;;;;;;;;;;6328885;28;20024;-85
2023/09/05 03:50:30;;;;;;;0.20;0.20;;;;;;;;;;6320099;28;20028;-85
2023/09/05 03:53:31;;;;;;;0.20;0.20;;;;;;;;;;6320090;28;20032;-85
2023/09/05 03:56:31;;;;;;;0.20;0.20;;;;;;;;;;6340186;28;20027;-85
2023/09/05 03:59:31;;;;;;;0.20;0.20;;;;;;;;;;6327391;28;20020;-85
2023/09/05 04:02:32;;;;;;;0.20;0.20;;;;;;;;;;6302168;28;20024;-84
2023/09/05 04:05:32;;;;;;;0.20;0.20;;;;;;;;;;6302123;28;20123;-85
2023/09/05 04:08:33;;;;;;;0.20;0.20;;;;;;;;;;6297303;28;20061;-84
2023/09/05 04:11:33;;;;;;;0.20;0.20;;;;;;;;;;6299315;28;20097;-83
2023/09/05 04:14:33;;;;;;;0.20;0.20;;;;;;;;;;6319623;28;20039;-84
2023/09/05 04:17:33;;;;;;;0.20;0.20;;;;;;;;;;6321359;28;20039;-84
2023/09/05 04:20:34;;;;;;;0.20;0.20;;;;;;;;;;6315206;28;20020;-84
2023/09/05 04:23:34;;;;;;;0.10;0.10;;;;;;;;;;6304803;28;20024;-84
2023/09/05 04:26:34;;;;;;;0.20;0.20;;;;;;;;;;6303111;28;20051;-84
2023/09/05 04:29:34;;;;;;;0.20;0.20;;;;;;;;;;6319435;28;20024;-84
2023/09/05 04:32:35;;;;;;;0.20;0.20;;;;;;;;;;6311061;28;20026;-83
2023/09/05 04:35:36;;;;;;;0.10;0.10;;;;;;;;;;6330004;28;20286;-84
2023/09/05 04:38:37;;;;;;;0.20;0.20;;;;;;;;;;6327063;28;20031;-83
2023/09/05 04:41:37;;;;;;;0.10;0.10;;;;;;;;;;6328015;28;20246;-84
2023/09/05 04:44:37;;;;;;;0.20;0.20;;;;;;;;;;6319931;28;20035;-83
2023/09/05 04:47:41;;;;;;;0.20;0.20;;;;;;;;;;6304056;28;20031;-83
2023/09/05 04:50:41;;;;;;;0.20;0.20;;;;;;;;;;6322750;28;20028;-83
2023/09/05 04:53:41;;;;;;;0.20;0.20;;;;;;;;;;6300490;28;20020;-83
2023/09/05 04:56:41;;;;;;;0.20;0.20;;;;;;;;;;6330620;28;20020;-83
2023/09/05 04:59:47;;;;;;;0.10;0.10;;;;;;;;;;6321084;28;20016;-83
2023/09/05 05:02:47;;;;;;;0.20;0.20;;;;;;;;;;6323338;28;20027;-83
2023/09/05 05:05:48;;;;;;;0.20;0.20;;;;;;;;;;6325749;28;20047;-83
2023/09/05 05:08:49;;;;;;;0.10;0.10;;;;;;;;;;6296689;28;20425;-82
2023/09/05 05:11:49;;;;;;;0.20;0.20;;;;;;;;;;6301981;28;20032;-83
2023/09/05 05:14:49;;;;;;;0.10;0.10;;;;;;;;;;6328990;28;20023;-84
2023/09/05 05:17:49;;;;;;;0.13;0.13;;;;;;;;;;6331666;28;20103;-83
2023/09/05 05:20:51;;;;;;;0.10;0.10;;;;;;;;;;6319938;28;20023;-82
2023/09/05 05:23:51;;;;;;;;;;;;;;;;;;6321431;28;20016;-83
2023/09/05 05:26:52;;;;;;;0.10;0.10;;;;;;;;;;6320729;28;19961;-83
2023/09/05 05:29:52;;;;;;;0.10;0.10;;;;;;;;;;6319780;28;20016;-82
2023/09/05 05:32:53;;;;;;;0.10;0.10;;;;;;;;;;6324458;28;20015;-83
2023/09/05 05:35:54;;;;;;;0.10;0.10;;;;;;;;;;6318590;28;20115;-83
2023/09/05 05:38:54;;;;;;;;;;;;;;;;;;6299932;28;20035;-83
2023/09/05 05:41:55;;;;;;;0.10;0.10;;;;;;;;;;6318309;28;19955;-83
2023/09/05 05:44:55;;;;;;;0.10;0.10;;;;;;;;;;6331416;28;20026;-82
2023/09/05 05:47:57;;;;;;;0.00;0.00;;;;;;;;;;6300335;28;20016;-83
2023/09/05 05:50:57;;;;;;;0.10;0.10;;;;;;;;;;6322698;28;20111;-83
2023/09/05 05:53:57;;;;;;;0.10;0.10;;;;;;;;;;6323878;28;20027;-82
2023/09/05 05:56:57;;;;;;;0.10;0.10;;;;;;;;;;6322962;28;20474;-82
2023/09/05 05:59:57;;;;;;;0.00;0.00;;;;;;;;;;6317077;28;20016;-82
2023/09/05 06:02:59;;;;;;;0.00;0.00;;;;;;;;;;6317630;28;20023;-82
2023/09/05 06:05:59;;;;;;;0.10;0.10;;;;;;;;;;6301199;28;20057;-82
2023/09/05 06:09:00;;;;;;;0.00;0.00;;;;;;;;;;6304765;28;20019;-83
2023/09/05 06:12:00;;;;;;;0.00;0.00;;;;;;;;;;6326374;28;20427;-83
2023/09/05 06:15:00;;;;;;;0.00;0.00;;;;;;;;;;6304922;28;20138;-83
2023/09/05 06:18:01;;;;;;;0.00;0.00;;;;;;;;;;6298992;28;20019;-83
2023/09/05 06:21:01;;;;;;;0.00;0.00;;;;;;;;;;6324811;28;20022;-83
2023/09/05 06:24:01;;;;;;;0.00;0.00;;;;;;;;;;6318581;28;20027;-83
2023/09/05 06:27:02;;;;;;;0.00;0.00;;;;;;;;;;6317653;28;20020;-82
2023/09/05 06:30:02;;;;;;;0.07;0.07;;;;;;;;;;6317620;28;20360;-82
2023/09/05 06:33:03;;;;;;;0.00;0.00;;;;;;;;;;6321256;28;20023;-83
2023/09/05 06:36:06;;;;;;;0.00;0.00;;;;;;;;;;6319957;28;20016;-83
2023/09/05 06:39:07;;;;;;;0.00;0.00;;;;;;;;;;6301671;28;20036;-83
2023/09/05 06:42:08;;;;;;;0.00;0.00;;;;;;;;;;6308849;28;20488;-83
2023/09/05 06:45:08;;;;;;;0.00;0.00;;;;;;;;;;6317382;28;20028;-83
2023/09/05 06:48:09;;;;;;;0.00;0.00;;;;;;;;;;6317303;28;20516;-86
2023/09/05 06:51:09;;;;;;;0.00;0.00;;;;;;;;;;6298952;28;20262;-87
2023/09/05 06:54:09;;;;;;;0.00;0.00;;;;;;;;;;6283306;28;20028;-87
2023/09/05 06:57:09;;;;;;;0.00;0.00;;;;;;;;;;6327395;28;20027;-87
2023/09/05 07:00:12;;;;;;;0.00;0.00;;;;;;;;;;6299694;28;20023;-87
2023/09/05 07:03:14;;;;;;;0.00;0.00;;;;;;;;;;6302772;28;20020;-87
2023/09/05 07:06:18;;;;;;;;;;;;;;;;;;6310563;28;20378;-87
2023/09/05 07:09:19;;;;;;;0.00;0.00;;;;;;;;;;6320776;28;19912;-86
2023/09/05 07:12:19;;;;;;;0.00;0.00;;;;;;;;;;6307508;28;20082;-87
2023/09/05 07:15:19;;;;;;;0.00;0.00;;;;;;;;;;6304201;28;20012;-87
2023/09/05 07:18:20;;;;;;;0.00;0.00;;;;;;;;;;6316640;28;20030;-87
2023/09/05 07:21:20;;;;;;;0.00;0.00;;;;;;;;;;6322386;28;20012;-87
2023/09/05 07:24:20;;;;;;;0.00;0.00;;;;;;;;;;6334687;28;20031;-86
2023/09/05 07:27:21;;;;;;;0.00;0.00;;;;;;;;;;6322437;28;20044;-91
2023/09/05 07:30:21;;;;;;;0.00;0.00;;;;;;;;;;6305151;28;20055;-91
2023/09/05 07:33:22;;;;;;;0.00;0.00;;;;;;;;;;6306079;28;20655;-91
2023/09/05 07:36:22;;;;;;;0.00;0.00;;;;;;;;;;6301496;28;20081;-90
2023/09/05 07:39:24;;;;;;;0.00;0.00;;;;;;;;;;6327744;28;20580;-82
2023/09/05 07:42:24;;;;;;;0.00;0.00;;;;;;;;;;6314175;28;20024;-83
2023/09/05 07:45:25;;;;;;;0.00;0.00;;;;;;;;;;6321790;28;20100;-83
2023/09/05 07:48:25;;;;;;;;;;;;;;;;;;6312396;28;20024;-83
2023/09/05 07:51:25;;;;;;;0.00;0.00;;;;;;;;;;6338053;28;19908;-83
2023/09/05 07:54:25;;;;;;;0.00;0.00;;;;;;;;;;6319557;28;20093;-83
2023/09/05 07:57:26;;;;;;;;;;;;;;;;;;6300920;28;20028;-83
2023/09/05 08:00:27;;;;;;;0.00;0.00;;;;;;;;;;6332469;28;19916;-83
2023/09/05 08:03:27;;;;;;;;;;;;;;;;;;6298755;28;20024;-83
2023/09/05 08:06:28;;;;;;;0.00;0.00;;;;;;;;;;6316990;28;19910;-82
2023/09/05 08:09:28;;;;;;;0.00;0.00;;;;;;;;;;6315707;28;20047;-83
2023/09/05 08:12:29;;;;;;;0.00;0.00;;;;;;;;;;6295136;28;20490;-83
2023/09/05 08:15:29;;;;;;;0.00;0.00;;;;;;;;;;6305286;28;20074;-83
2023/09/05 08:18:29;;;;;;;0.00;0.00;;;;;;;;;;6331971;28;20012;-83
2023/09/05 08:21:30;;;;;;;0.00;0.00;;;;;;;;;;6304622;28;20115;-83
2023/09/05 08:24:30;;;;;;;0.00;0.00;;;;;;;;;;6337606;28;20019;-83
2023/09/05 08:27:30;;;;;;;0.00;0.00;;;;;;;;;;6297505;28;20047;-83
2023/09/05 08:30:30;;;;;;;0.00;0.00;;;;;;;;;;6278743;28;20056;-82
2023/09/05 08:33:31;;;;;;;0.00;0.00;;;;;;;;;;6319381;28;20663;-83
2023/09/05 08:36:31;;;;;;;0.00;0.00;;;;;;;;;;6309523;28;20024;-83
2023/09/05 08:39:32;;;;;;;0.00;0.00;;;;;;;;;;6331915;28;20043;-83
2023/09/05 08:42:32;;;;;;;0.00;0.00;;;;;;;;;;6301861;28;20012;-83
2023/09/05 08:45:35;;;;;;;0.00;0.00;;;;;;;;;;6319548;28;20020;-83
2023/09/05 08:48:36;;;;;;;0.00;0.00;;;;;;;;;;6311041;28;20019;-83
2023/09/05 08:51:40;;;;;;;0.00;0.00;;;;;;;;;;6337445;28;20027;-83
2023/09/05 08:54:42;;;;;;;0.00;0.00;;;;;;;;;;6314271;28;20474;-83
2023/09/05 08:57:46;;;;;;;0.00;0.00;;;;;;;;;;6320765;28;20020;-83
2023/09/05 09:00:46;;;;;;;0.00;0.00;;;;;;;;;;6307419;28;20009;-83
2023/09/05 09:03:47;;;;;;;0.00;0.00;;;;;;;;;;6319671;28;20151;-83
2023/09/05 09:06:53;;;;;;;0.00;0.00;;;;;;;;;;6333646;28;20031;-83
2023/09/05 09:09:55;;;;;;;0.00;0.00;;;;;;;;;;6315990;28;20024;-83
2023/09/05 09:13:12;;;;;;;0.00;0.00;;;;;;;;;;6324827;28;20387;-83
2023/09/05 09:16:17;;;;;;;0.00;0.00;;;;;;;;;;6300558;28;20024;-82
2023/09/05 09:19:17;;;;;;;0.00;0.00;;;;;;;;;;6319658;28;20115;-82
2023/09/05 09:22:21;;;;;;;0.00;0.00;;;;;;;;;;6294586;28;20022;-81
2023/09/05 09:25:22;;;;;;;0.00;0.00;;;;;;;;;;6306783;28;20024;-83
2023/09/05 09:28:28;;;;;;;0.00;0.00;;;;;;;;;;6296219;28;20390;-82
2023/09/05 09:31:29;;;;;;;0.00;0.00;;;;;;;;;;6294931;28;20554;-84
2023/09/05 09:34:31;;;;;;;0.00;0.00;;;;;;;;;;6300864;28;20013;-83
2023/09/05 09:37:31;;;;;;;0.00;0.00;;;;;;;;;;6301017;28;20139;-84
2023/09/05 09:40:36;;;;;;;0.00;0.00;;;;;;;;;;6295904;28;20020;-83
2023/09/05 09:43:36;;;;;;;0.00;0.00;;;;;;;;;;6309689;28;20028;-82
2023/09/05 09:46:37;;;;;;;0.00;0.00;;;;;;;;;;6325902;28;20406;-83
2023/09/05 09:49:42;;;;;;;0.00;0.00;;;;;;;;;;6292040;28;20462;-84
2023/09/05 09:52:43;;;;;;;0.00;0.00;;;;;;;;;;6311304;28;20016;-83
2023/09/05 09:55:44;;;;;;;0.00;0.00;;;;;;;;;;6328794;28;20423;-83
2023/09/05 09:58:45;;;;;;;0.00;0.00;;;;;;;;;;6311415;28;20012;-90
2023/09/05 10:01:47;;;;;;;0.00;0.00;;;;;;;;;;6296884;28;20056;-91
2023/09/05 10:04:49;;;;;;;0.00;0.00;;;;;;;;;;6317675;28;20024;-90
2023/09/05 10:07:49;;;;;;;;;;;;;;;;;;6300092;28;20078;-91
2023/09/05 10:10:51;;;;;;;0.00;0.00;;;;;;;;;;6304735;28;20311;-91
2023/09/05 10:13:51;;;;;;;0.00;0.00;;;;;;;;;;6312157;28;20050;-91
2023/09/05 10:16:52;;;;;;;0.00;0.00;;;;;;;;;;6312521;28;20027;-90
2023/09/05 10:19:53;;;;;;;0.00;0.00;;;;;;;;;;6308252;28;20017;-90
2023/09/05 10:22:53;;;;;;;0.00;0.00;;;;;;;;;;6319280;28;20559;-90
2023/09/05 10:25:55;;;;;;;0.00;0.00;;;;;;;;;;6316385;28;20024;-90
2023/09/05 10:28:56;;;;;;;0.00;0.00;;;;;;;;;;6329778;28;20123;-88
2023/09/05 10:31:56;;;;;;;0.00;0.00;;;;;;;;;;6319358;28;20032;-87
2023/09/05 10:35:02;;;;;;;0.00;0.00;;;;;;;;;;6289328;28;20436;-91
2023/09/05 10:38:04;;;;;;;0.00;0.00;;;;;;;;;;6306184;28;20046;-91
2023/09/05 10:41:04;;;;;;;0.00;0.00;;;;;;;;;;6293336;28;20020;-91
2023/09/05 10:44:06;;;;;;;0.00;0.00;;;;;;;;;;6314849;28;20139;-91
2023/09/05 10:47:26;;;;;;;0.00;0.00;;;;;;;;;;6290973;28;20111;-90
2023/09/05 10:50:26;;;;;;;0.00;0.00;;;;;;;;;;6312041;28;20032;-91
2023/09/05 10:53:28;;;;;;;0.00;0.00;;;;;;;;;;6318403;28;20868;-91
2023/09/05 10:56:41;;;;;;;0.00;0.00;;;;;;;;;;6309591;28;20025;-91
2023/09/05 10:59:43;;;;;;;0.00;0.00;;;;;;;;;;6322715;28;20007;-91
2023/09/05 11:02:44;;;;;;;0.00;0.00;;;;;;;;;;6317155;28;20063;-89
2023/09/05 11:05:45;;;;;;;0.00;0.00;;;;;;;;;;6309900;28;20040;-88
2023/09/05 11:08:55;;;;;;;0.00;0.00;;;;;;;;;;6312984;28;20426;-83
2023/09/05 11:11:55;;;;;;;0.00;0.00;;;;;;;;;;6313110;28;20576;-83
2023/09/05 11:14:55;;;;;;;0.00;0.00;;;;;;;;;;6298331;28;20031;-83
2023/09/05 11:18:05;;;;;;;0.00;0.00;;;;;;;;;;6320645;28;20012;-83
2023/09/05 11:21:17;;;;;;;0.00;0.00;;;;;;;;;;6312022;28;20019;-83
2023/09/05 11:24:18;;;;;;;0.00;0.00;;;;;;;;;;6311055;28;20032;-83
2023/09/05 11:27:23;;;;;;;0.00;0.00;;;;;;;;;;6311566;28;20059;-84
2023/09/05 11:30:24;;;;;;;0.00;0.00;;;;;;;;;;6311344;28;20490;-83
2023/09/05 11:33:24;;;;;;;;;;;;;;;;;;6317916;28;20457;-84
2023/09/05 11:36:25;;;;;;;0.00;0.00;;;;;;;;;;6299782;28;20432;-84
2023/09/05 11:39:28;;;;;;;0.00;0.00;;;;;;;;;;6306716;28;20097;-83
2023/09/05 11:42:31;;;;;;;0.00;0.00;;;;;;;;;;6325203;28;20103;-83
2023/09/05 11:45:37;;;;;;;0.00;0.00;;;;;;;;;;6328861;28;20032;-83
2023/09/05 11:48:37;;;;;;;0.00;0.00;;;;;;;;;;6318810;28;20677;-84
2023/09/05 11:51:37;;;;;;;0.00;0.00;;;;;;;;;;6318560;28;20032;-84
2023/09/05 11:54:39;;;;;;;0.00;0.00;;;;;;;;;;6331287;28;20032;-83
2023/09/05 11:57:40;;;;;;;0.00;0.00;;;;;;;;;;6327428;28;20103;-83
2023/09/05 12:00:42;;;;;;;0.00;0.00;;;;;;;;;;6307790;28;20008;-84
2023/09/05 12:03:42;;;;;;;0.00;0.00;;;;;;;;;;6325235;28;20388;-83
2023/09/05 12:06:47;;;;;;;0.00;0.00;;;;;;;;;;6305633;28;20051;-83
2023/09/05 12:09:47;;;;;;;0.00;0.00;;;;;;;;;;6324945;28;20016;-84
2023/09/05 12:12:58;;;;;;;0.00;0.00;;;;;;;;;;6296613;28;20012;-83
2023/09/05 12:15:59;;;;;;;0.00;0.00;;;;;;;;;;6331261;28;20553;-83
2023/09/05 12:19:00;;;;;;;;;;;;;;;;;;6321904;28;20047;-87
2023/09/05 12:22:01;;;;;;;0.00;0.00;;;;;;;;;;6326332;28;19912;-89
2023/09/05 12:25:21;;;;;;;0.00;0.00;;;;;;;;;;6313538;28;20015;-89
2023/09/05 12:28:22;;;;;;;0.00;0.00;;;;;;;;;;6322047;28;20555;-89
2023/09/05 12:31:23;;;;;;;0.00;0.00;;;;;;;;;;6302385;28;20258;-90
2023/09/05 12:34:23;;;;;;;0.00;0.00;;;;;;;;;;6302261;28;20048;-89
2023/09/05 12:37:23;;;;;;;0.00;0.00;;;;;;;;;;6329932;28;20043;-89
2023/09/05 12:40:24;;;;;;;;;;;;;;;;;;6323438;28;20047;-89
2023/09/05 12:43:24;;;;;;;0.00;0.00;;;;;;;;;;6322695;28;19915;-90
2023/09/05 12:46:25;;;;;;;0.00;0.00;;;;;;;;;;6319000;28;20097;-89
2023/09/05 12:49:25;;;;;;;0.00;0.00;;;;;;;;;;6330983;28;20292;-90
2023/09/05 12:52:26;;;;;;;;;;;;;;;;;;6299253;28;20076;-90
2023/09/05 12:55:27;;;;;;;0.00;0.00;;;;;;;;;;6318736;28;20357;-89
2023/09/05 12:58:29;;;;;;;;;;;;;;;;;;6318969;28;20439;-90
2023/09/05 13:01:30;;;;;;;0.00;0.00;;;;;;;;;;6319507;28;19915;-89
2023/09/05 13:04:30;;;;;;;0.00;0.00;;;;;;;;;;6313540;28;20470;-90
2023/09/05 13:07:30;;;;;;;;;;;;;;;;;;6322237;28;20023;-89
2023/09/05 13:10:30;;;;;;;0.00;0.00;;;;;;;;;;6315889;28;19912;-90
2023/09/05 13:13:30;;;;;;;0.00;0.00;;;;;;;;;;6336321;28;20016;-90
2023/09/05 13:16:31;;;;;;;0.00;0.00;;;;;;;;;;6296955;28;20024;-90
2023/09/05 13:19:33;;;;;;;;;;;;;;;;;;6306859;28;20028;-90
2023/09/05 13:22:34;;;;;;;0.00;0.00;;;;;;;;;;6317927;28;19912;-90
2023/09/05 13:25:34;;;;;;;0.00;0.00;;;;;;;;;;6319811;28;20028;-89
2023/09/05 13:28:34;;;;;;;0.00;0.00;;;;;;;;;;6307898;28;20023;-84
2023/09/05 13:31:35;;;;;;;0.00;0.00;;;;;;;;;;6323217;28;20024;-83
2023/09/05 13:34:35;;;;;;;;;;;;;;;;;;6325341;28;20059;-83
2023/09/05 13:37:35;;;;;;;0.00;0.00;;;;;;;;;;6317129;28;19930;-84
2023/09/05 13:40:35;;;;;;;;;;;;;;;;;;6320806;28;20012;-83
2023/09/05 13:43:35;;;;;;;0.00;0.00;;;;;;;;;;6308234;28;20442;-84
2023/09/05 13:46:36;;;;;;;;;;;;;;;;;;6318842;28;20016;-83
2023/09/05 13:49:36;;;;;;;0.00;0.00;;;;;;;;;;6317924;28;19912;-83
2023/09/05 13:52:37;;;;;;;;;;;;;;;;;;6310292;28;20392;-83
2023/09/05 13:55:37;;;;;;;0.00;0.00;;;;;;;;;;6318641;28;20010;-83
2023/09/05 13:58:38;;;;;;;;;;;;;;;;;;6321920;28;20024;-84
2023/09/05 14:01:38;;;;;;;0.00;0.00;;;;;;;;;;6317816;28;20297;-83
2023/09/05 14:04:38;;;;;;;;;;;;;;;;;;6318166;28;20269;-84
2023/09/05 14:07:41;;;;;;;0.00;0.00;;;;;;;;;;6299464;28;19911;-83
2023/09/05 14:10:42;;;;;;;0.00;0.00;;;;;;;;;;6299329;28;20044;-84
2023/09/05 14:13:43;;;;;;;0.00;0.00;;;;;;;;;;6324900;28;20513;-84
2023/09/05 14:16:43;;;;;;;0.00;0.00;;;;;;;;;;6317853;28;20047;-83
2023/09/05 14:19:43;;;;;;;0.00;0.00;;;;;;;;;;6295012;28;20036;-83
2023/09/05 14:22:44;;;;;;;0.00;0.00;;;;;;;;;;6298423;28;20024;-83
2023/09/05 14:25:44;;;;;;;0.00;0.00;;;;;;;;;;6289546;28;20105;-84
2023/09/05 14:28:44;;;;;;;0.00;0.00;;;;;;;;;;6312295;28;20024;-83
2023/09/05 14:31:44;;;;;;;0.00;0.00;;;;;;;;;;6316419;28;20051;-83
2023/09/05 14:34:44;;;;;;;0.00;0.00;;;;;;;;;;6300187;28;20032;-83
2023/09/05 14:37:45;;;;;;;0.00;0.00;;;;;;;;;;6314603;28;20146;-90
2023/09/05 14:40:45;;;;;;;0.00;0.00;;;;;;;;;;6301034;28;20016;-90
2023/09/05 14:43:46;;;;;;;0.00;0.00;;;;;;;;;;6320146;28;20051;-89
2023/09/05 14:46:47;;;;;;;0.00;0.00;;;;;;;;;;6320059;28;20266;-89
2023/09/05 14:49:48;;;;;;;0.00;0.00;;;;;;;;;;6318164;28;20055;-90
2023/09/05 14:52:55;;;;;;;0.00;0.00;;;;;;;;;;6316392;28;20012;-89
2023/09/05 14:55:56;;;;;;;0.00;0.00;;;;;;;;;;6308278;28;20374;-90
2023/09/05 14:58:56;;;;;;;0.00;0.00;;;;;;;;;;6321046;28;20015;-83
2023/09/05 15:01:57;;;;;;;0.00;0.00;;;;;;;;;;6315869;28;20466;-82
2023/09/05 15:04:57;;;;;;;0.00;0.00;;;;;;;;;;6321871;28;20031;-83
2023/09/05 15:07:58;;;;;;;0.00;0.00;;;;;;;;;;6316063;28;20039;-83
2023/09/05 15:10:58;;;;;;;0.00;0.00;;;;;;;;;;6302531;28;20043;-83
2023/09/05 15:13:58;;;;;;;0.00;0.00;;;;;;;;;;6316999;28;20254;-84
2023/09/05 15:16:58;;;;;;;0.00;0.00;;;;;;;;;;6293923;28;20035;-82
2023/09/05 15:19:59;;;;;;;0.00;0.00;;;;;;;;;;6303571;28;20103;-83
2023/09/05 15:22:59;;;;;;;0.00;0.00;;;;;;;;;;6313262;28;20027;-83
2023/09/05 15:25:59;;;;;;;0.00;0.00;;;;;;;;;;6328907;28;20763;-83
2023/09/05 15:28:59;;;;;;;0.00;0.00;;;;;;;;;;6321190;28;20023;-83
2023/09/05 15:32:01;;;;;;;0.00;0.00;;;;;;;;;;6321362;28;20316;-84
2023/09/05 15:35:03;;;;;;;0.00;0.00;;;;;;;;;;6321656;28;20012;-83
2023/09/05 15:38:05;;;;;;;0.00;0.00;;;;;;;;;;6320669;28;20052;-83
2023/09/05 15:41:06;;;;;;;0.00;0.00;;;;;;;;;;6316867;28;20034;-83
2023/09/05 15:44:08;;;;;;;0.00;0.00;;;;;;;;;;6329425;28;20095;-83
2023/09/05 15:47:09;;;;;;;0.00;0.00;;;;;;;;;;6327701;28;20022;-84
2023/09/05 15:50:10;;;;;;;;;;;;;;;;;;6332233;28;20016;-84
2023/09/05 15:53:13;;;;;;;0.00;0.00;;;;;;;;;;6321233;28;20380;-83
2023/09/05 15:56:13;;;;;;;0.00;0.00;;;;;;;;;;6322781;28;20114;-83
2023/09/05 15:59:14;;;;;;;;;;;;;;;;;;6322905;28;20024;-84
2023/09/05 16:02:14;;;;;;;0.00;0.00;;;;;;;;;;6322465;28;19991;-84
2023/09/05 16:05:14;;;;;;;;;;;;;;;;;;6298078;28;20485;-83
2023/09/05 16:08:16;;;;;;;0.00;0.00;;;;;;;;;;6320639;28;20431;-83
2023/09/05 16:11:20;;;;;;;0.00;0.00;;;;;;;;;;6333530;28;20031;-83
2023/09/05 16:14:20;;;;;;;0.00;0.00;;;;;;;;;;6306203;28;20105;-83
2023/09/05 16:17:21;;;;;;;;;;;;;;;;;;6309717;28;20019;-84
2023/09/05 16:20:21;;;;;;;0.00;0.00;;;;;;;;;;6320810;28;20406;-84
2023/09/05 16:23:21;;;;;;;;;;;;;;;;;;6323070;28;20038;-83
2023/09/05 16:26:22;;;;;;;0.00;0.00;;;;;;;;;;6328514;28;19908;-83
2023/09/05 16:29:23;;;;;;;0.00;0.00;;;;;;;;;;6336031;28;20020;-83
2023/09/05 16:32:23;;;;;;;;;;;;;;;;;;6333099;28;20501;-83
2023/09/05 16:35:23;;;;;;;0.00;0.00;;;;;;;;;;6320283;28;20366;-83
2023/09/05 16:38:23;;;;;;;;;;;;;;;;;;6297293;28;20115;-83
2023/09/05 16:41:29;;;;;;;0.00;0.00;;;;;;;;;;6301677;28;19926;-84
2023/09/05 16:44:31;;;;;;;0.00;0.00;;;;;;;;;;6315288;28;20032;-83
2023/09/05 16:47:31;;;;;;;0.00;0.00;;;;;;;;;;6323929;28;20023;-83
2023/09/05 16:50:31;;;;;;;0.00;0.00;;;;;;;;;;6324178;28;20024;-83
2023/09/05 16:53:32;;;;;;;0.00;0.00;;;;;;;;;;6306462;28;20052;-84
2023/09/05 16:56:32;;;;;;;0.00;0.00;;;;;;;;;;6309470;28;20055;-83
2023/09/05 16:59:32;;;;;;;0.00;0.00;;;;;;;;;;6333093;28;20049;-88
2023/09/05 17:02:32;;;;;;;0.00;0.00;;;;;;;;;;6307526;28;20119;-89
2023/09/05 17:05:33;;;;;;;0.00;0.00;;;;;;;;;;6301757;28;20126;-89
2023/09/05 17:08:34;;;;;;;0.00;0.00;;;;;;;;;;6313125;28;20135;-88
2023/09/05 17:11:35;;;;;;;0.00;0.00;;;;;;;;;;6310463;28;20020;-88
2023/09/05 17:14:35;;;;;;;0.05;0.05;;;;;;;;;;6305598;28;20490;-88
2023/09/05 17:17:36;;;;;;;0.00;0.00;;;;;;;;;;6307923;28;20031;-83
2023/09/05 17:20:36;;;;;;;0.10;0.10;;;;;;;;;;6323506;28;20015;-82
2023/09/05 17:23:36;;;;;;;0.10;0.10;;;;;;;;;;6327714;28;20382;-82
2023/09/05 17:26:37;;;;;;;0.00;0.00;;;;;;;;;;6319841;28;20035;-82
2023/09/05 17:29:37;;;;;;;0.10;0.10;;;;;;;;;;6331317;28;20085;-82
2023/09/05 17:32:37;;;;;;;0.10;0.10;;;;;;;;;;6317611;28;20032;-83
2023/09/05 17:35:41;;;;;;;0.10;0.10;;;;;;;;;;6316962;28;20043;-82
2023/09/05 17:38:41;;;;;;;0.10;0.10;;;;;;;;;;6321397;28;20031;-83
2023/09/05 17:41:41;;;;;;;0.00;0.00;;;;;;;;;;6318067;28;20059;-82
2023/09/05 17:44:41;;;;;;;0.10;0.10;;;;;;;;;;6292164;28;20055;-82
2023/09/05 17:47:42;;;;;;;0.10;0.10;;;;;;;;;;6320203;28;20106;-82
2023/09/05 17:50:42;;;;;;;0.10;0.10;;;;;;;;;;6318489;28;20023;-83
2023/09/05 17:53:43;;;;;;;0.00;0.00;;;;;;;;;;6313762;28;20023;-83
2023/09/05 17:56:43;;;;;;;0.10;0.10;;;;;;;;;;6313304;28;20054;-83
2023/09/05 17:59:44;;;;;;;0.10;0.10;;;;;;;;;;6315364;28;20127;-83
2023/09/05 18:02:47;;;;;;;0.10;0.10;;;;;;;;;;6295659;28;20023;-82
2023/09/05 18:05:48;;;;;;;0.10;0.10;;;;;;;;;;6309572;28;20024;-82
2023/09/05 18:08:48;;;;;;;0.10;0.10;;;;;;;;;;6299164;28;20081;-83
2023/09/05 18:11:49;;;;;;;0.10;0.10;;;;;;;;;;6314916;28;20027;-82
2023/09/05 18:14:49;;;;;;;0.00;0.00;;;;;;;;;;6320945;28;20012;-83